Port Nolloth, South Africa
Current Conditions -  °F | °C
As of 1:00 AM on Tuesday 25 Nov 2014 (Local Time) from FAUP Reporting Station
Clear Clear  
Wind Chill: 64°   Ceiling: Unl
Heat Index: 64°   Visibility: 6mi
Dew Point: 23°   Wind: 5mph
Humidity: 21%   Direction: 240°WSW
Pressure: 29.97"   Gusts: NA
Location:  29.24°S, 16.88°E
Report Text: FAUP 242300Z 24004KT CAVOK 18/M05 Q1015 NOSIG
Loading
Personal Weather Stations






























Interactive Weather Map New forecast layout! Learn more

10-Day Weather Forecast

Advertisements
Track Severe Weather on mobile